sensor_id;sensor_type;location;lat;lon;timestamp;P1;durP1;ratioP1;P2;durP2;ratioP2
25359;SDS011;13311;51.386;0.016;2022-11-15T00:00:15;9.65;;;2.78;;
25359;SDS011;13311;51.386;0.016;2022-11-15T00:05:16;6.18;;;1.65;;
25359;SDS011;13311;51.386;0.016;2022-11-15T00:10:17;8.23;;;1.98;;
25359;SDS011;13311;51.386;0.016;2022-11-15T00:15:18;10.50;;;1.85;;
25359;SDS011;13311;51.386;0.016;2022-11-15T00:20:18;9.30;;;2.28;;
25359;SDS011;13311;51.386;0.016;2022-11-15T00:25:19;7.63;;;1.65;;
25359;SDS011;13311;51.386;0.016;2022-11-15T00:30:20;4.80;;;1.48;;
25359;SDS011;13311;51.386;0.016;2022-11-15T00:35:21;9.40;;;1.58;;
25359;SDS011;13311;51.386;0.016;2022-11-15T00:40:22;6.50;;;1.90;;
25359;SDS011;13311;51.386;0.016;2022-11-15T00:45:23;8.13;;;1.88;;
25359;SDS011;13311;51.386;0.016;2022-11-15T00:50:24;6.00;;;1.88;;
25359;SDS011;13311;51.386;0.016;2022-11-15T00:55:24;15.52;;;2.28;;
25359;SDS011;13311;51.386;0.016;2022-11-15T01:00:25;12.38;;;2.13;;
25359;SDS011;13311;51.386;0.016;2022-11-15T01:05:26;5.75;;;1.50;;
25359;SDS011;13311;51.386;0.016;2022-11-15T01:10:27;5.70;;;1.55;;
25359;SDS011;13311;51.386;0.016;2022-11-15T01:15:28;8.13;;;2.30;;
25359;SDS011;13311;51.386;0.016;2022-11-15T01:20:29;6.50;;;1.92;;
25359;SDS011;13311;51.386;0.016;2022-11-15T01:25:29;6.03;;;1.63;;
25359;SDS011;13311;51.386;0.016;2022-11-15T01:30:30;7.50;;;1.92;;
25359;SDS011;13311;51.386;0.016;2022-11-15T01:35:31;8.13;;;2.22;;
25359;SDS011;13311;51.386;0.016;2022-11-15T01:40:31;5.70;;;1.88;;
25359;SDS011;13311;51.386;0.016;2022-11-15T01:45:32;13.90;;;1.48;;
25359;SDS011;13311;51.386;0.016;2022-11-15T01:50:33;6.63;;;2.03;;
25359;SDS011;13311;51.386;0.016;2022-11-15T01:55:34;11.50;;;2.05;;
25359;SDS011;13311;51.386;0.016;2022-11-15T02:00:37;11.85;;;1.90;;
25359;SDS011;13311;51.386;0.016;2022-11-15T02:05:38;9.75;;;2.40;;
25359;SDS011;13311;51.386;0.016;2022-11-15T02:10:39;15.02;;;1.85;;
25359;SDS011;13311;51.386;0.016;2022-11-15T02:15:44;11.27;;;1.58;;
25359;SDS011;13311;51.386;0.016;2022-11-15T02:26:47;11.75;;;1.80;;
25359;SDS011;13311;51.386;0.016;2022-11-15T02:32:13;12.63;;;2.30;;
25359;SDS011;13311;51.386;0.016;2022-11-15T02:42:52;16.08;;;2.17;;
25359;SDS011;13311;51.386;0.016;2022-11-15T02:48:16;9.80;;;1.60;;
25359;SDS011;13311;51.386;0.016;2022-11-15T02:53:18;11.55;;;1.77;;
25359;SDS011;13311;51.386;0.016;2022-11-15T03:09:27;14.48;;;2.13;;
25359;SDS011;13311;51.386;0.016;2022-11-15T03:15:04;9.50;;;2.20;;
25359;SDS011;13311;51.386;0.016;2022-11-15T03:20:15;11.00;;;1.75;;
25359;SDS011;13311;51.386;0.016;2022-11-15T03:25:19;11.07;;;1.95;;
25359;SDS011;13311;51.386;0.016;2022-11-15T03:30:23;9.95;;;2.13;;
25359;SDS011;13311;51.386;0.016;2022-11-15T03:35:25;11.43;;;1.50;;
25359;SDS011;13311;51.386;0.016;2022-11-15T03:41:14;15.60;;;2.33;;
25359;SDS011;13311;51.386;0.016;2022-11-15T03:46:00;13.13;;;1.73;;
25359;SDS011;13311;51.386;0.016;2022-11-15T03:51:11;11.85;;;3.10;;
25359;SDS011;13311;51.386;0.016;2022-11-15T03:56:12;12.18;;;2.22;;
25359;SDS011;13311;51.386;0.016;2022-11-15T04:01:12;10.77;;;2.22;;
25359;SDS011;13311;51.386;0.016;2022-11-15T04:06:14;9.75;;;1.98;;
25359;SDS011;13311;51.386;0.016;2022-11-15T04:11:14;8.95;;;1.70;;
25359;SDS011;13311;51.386;0.016;2022-11-15T04:16:15;21.35;;;3.05;;
25359;SDS011;13311;51.386;0.016;2022-11-15T04:21:16;13.02;;;2.47;;
25359;SDS011;13311;51.386;0.016;2022-11-15T04:26:35;6.38;;;1.50;;
25359;SDS011;13311;51.386;0.016;2022-11-15T04:31:36;12.35;;;2.42;;
25359;SDS011;13311;51.386;0.016;2022-11-15T04:36:36;17.27;;;2.17;;
25359;SDS011;13311;51.386;0.016;2022-11-15T04:41:55;17.25;;;2.80;;
25359;SDS011;13311;51.386;0.016;2022-11-15T04:46:56;10.63;;;2.03;;
25359;SDS011;13311;51.386;0.016;2022-11-15T04:51:57;21.90;;;3.95;;
25359;SDS011;13311;51.386;0.016;2022-11-15T04:56:58;13.40;;;2.50;;
25359;SDS011;13311;51.386;0.016;2022-11-15T05:01:58;10.85;;;2.60;;
25359;SDS011;13311;51.386;0.016;2022-11-15T05:06:59;8.63;;;2.22;;
25359;SDS011;13311;51.386;0.016;2022-11-15T05:12:00;11.50;;;2.00;;
25359;SDS011;13311;51.386;0.016;2022-11-15T05:17:01;17.00;;;2.58;;
25359;SDS011;13311;51.386;0.016;2022-11-15T05:22:01;19.67;;;2.95;;
25359;SDS011;13311;51.386;0.016;2022-11-15T05:27:02;13.40;;;2.42;;
25359;SDS011;13311;51.386;0.016;2022-11-15T05:32:04;15.80;;;2.70;;
25359;SDS011;13311;51.386;0.016;2022-11-15T05:37:06;16.17;;;2.90;;
25359;SDS011;13311;51.386;0.016;2022-11-15T05:42:11;29.90;;;3.58;;
25359;SDS011;13311;51.386;0.016;2022-11-15T05:47:17;20.55;;;3.28;;
25359;SDS011;13311;51.386;0.016;2022-11-15T05:52:25;19.73;;;3.67;;
25359;SDS011;13311;51.386;0.016;2022-11-15T05:57:31;15.38;;;3.33;;
25359;SDS011;13311;51.386;0.016;2022-11-15T06:02:32;20.05;;;2.80;;
25359;SDS011;13311;51.386;0.016;2022-11-15T06:07:33;16.55;;;3.38;;
25359;SDS011;13311;51.386;0.016;2022-11-15T06:12:33;14.55;;;2.90;;
25359;SDS011;13311;51.386;0.016;2022-11-15T06:17:34;14.30;;;3.13;;
25359;SDS011;13311;51.386;0.016;2022-11-15T06:22:35;21.63;;;3.78;;
25359;SDS011;13311;51.386;0.016;2022-11-15T06:27:35;14.75;;;2.50;;
25359;SDS011;13311;51.386;0.016;2022-11-15T06:32:36;11.68;;;2.92;;
25359;SDS011;13311;51.386;0.016;2022-11-15T06:37:37;14.35;;;2.75;;
25359;SDS011;13311;51.386;0.016;2022-11-15T06:42:37;18.90;;;3.67;;
25359;SDS011;13311;51.386;0.016;2022-11-15T06:47:45;17.40;;;2.97;;
25359;SDS011;13311;51.386;0.016;2022-11-15T06:52:46;18.95;;;2.80;;
25359;SDS011;13311;51.386;0.016;2022-11-15T06:57:48;12.75;;;2.80;;
25359;SDS011;13311;51.386;0.016;2022-11-15T07:02:50;16.75;;;3.47;;
25359;SDS011;13311;51.386;0.016;2022-11-15T07:07:51;12.82;;;3.58;;
25359;SDS011;13311;51.386;0.016;2022-11-15T07:12:54;16.90;;;2.90;;
25359;SDS011;13311;51.386;0.016;2022-11-15T07:17:55;12.43;;;2.00;;
25359;SDS011;13311;51.386;0.016;2022-11-15T07:22:59;27.13;;;3.05;;
25359;SDS011;13311;51.386;0.016;2022-11-15T07:28:02;13.75;;;2.33;;
25359;SDS011;13311;51.386;0.016;2022-11-15T07:33:03;17.13;;;3.17;;
25359;SDS011;13311;51.386;0.016;2022-11-15T07:38:03;15.68;;;2.60;;
25359;SDS011;13311;51.386;0.016;2022-11-15T07:43:07;15.68;;;2.80;;
25359;SDS011;13311;51.386;0.016;2022-11-15T07:48:08;8.93;;;1.90;;
25359;SDS011;13311;51.386;0.016;2022-11-15T07:53:10;11.98;;;2.20;;
25359;SDS011;13311;51.386;0.016;2022-11-15T07:58:11;10.82;;;2.13;;
25359;SDS011;13311;51.386;0.016;2022-11-15T08:03:13;6.65;;;1.83;;
25359;SDS011;13311;51.386;0.016;2022-11-15T08:08:16;7.30;;;1.52;;
25359;SDS011;13311;51.386;0.016;2022-11-15T08:13:16;6.60;;;1.52;;
25359;SDS011;13311;51.386;0.016;2022-11-15T08:18:17;6.03;;;1.70;;
25359;SDS011;13311;51.386;0.016;2022-11-15T08:23:20;8.07;;;1.67;;
25359;SDS011;13311;51.386;0.016;2022-11-15T08:28:20;7.57;;;1.45;;
25359;SDS011;13311;51.386;0.016;2022-11-15T08:33:21;5.95;;;1.40;;
25359;SDS011;13311;51.386;0.016;2022-11-15T08:38:22;5.60;;;1.73;;
25359;SDS011;13311;51.386;0.016;2022-11-15T08:43:23;8.43;;;2.08;;
25359;SDS011;13311;51.386;0.016;2022-11-15T08:48:23;3.17;;;1.23;;
25359;SDS011;13311;51.386;0.016;2022-11-15T08:53:24;2.65;;;0.90;;
25359;SDS011;13311;51.386;0.016;2022-11-15T08:58:25;3.50;;;1.10;;
25359;SDS011;13311;51.386;0.016;2022-11-15T09:03:26;1.90;;;0.70;;
25359;SDS011;13311;51.386;0.016;2022-11-15T09:08:29;2.85;;;1.00;;
25359;SDS011;13311;51.386;0.016;2022-11-15T09:13:31;2.33;;;0.70;;
25359;SDS011;13311;51.386;0.016;2022-11-15T09:18:32;2.78;;;1.23;;
25359;SDS011;13311;51.386;0.016;2022-11-15T09:23:34;2.38;;;1.13;;
25359;SDS011;13311;51.386;0.016;2022-11-15T09:28:35;1.73;;;1.23;;
25359;SDS011;13311;51.386;0.016;2022-11-15T09:33:36;4.68;;;1.35;;
25359;SDS011;13311;51.386;0.016;2022-11-15T09:38:37;2.15;;;1.00;;
25359;SDS011;13311;51.386;0.016;2022-11-15T09:43:47;2.50;;;0.80;;
25359;SDS011;13311;51.386;0.016;2022-11-15T09:49:15;2.88;;;0.75;;
25359;SDS011;13311;51.386;0.016;2022-11-15T10:04:54;5.05;;;1.15;;
25359;SDS011;13311;51.386;0.016;2022-11-15T10:10:04;4.72;;;1.13;;
25359;SDS011;13311;51.386;0.016;2022-11-15T10:15:23;3.28;;;1.17;;
25359;SDS011;13311;51.386;0.016;2022-11-15T10:20:28;3.25;;;0.70;;
25359;SDS011;13311;51.386;0.016;2022-11-15T10:25:31;2.72;;;0.70;;
25359;SDS011;13311;51.386;0.016;2022-11-15T10:30:38;3.80;;;1.00;;
25359;SDS011;13311;51.386;0.016;2022-11-15T10:35:44;3.08;;;0.90;;
25359;SDS011;13311;51.386;0.016;2022-11-15T10:40:45;2.60;;;0.85;;
25359;SDS011;13311;51.386;0.016;2022-11-15T10:45:46;4.18;;;1.00;;
25359;SDS011;13311;51.386;0.016;2022-11-15T10:50:47;3.28;;;0.93;;
25359;SDS011;13311;51.386;0.016;2022-11-15T10:55:52;3.78;;;0.70;;
25359;SDS011;13311;51.386;0.016;2022-11-15T11:00:58;3.85;;;1.00;;
25359;SDS011;13311;51.386;0.016;2022-11-15T11:06:26;3.15;;;0.90;;
25359;SDS011;13311;51.386;0.016;2022-11-15T11:11:46;3.95;;;0.88;;
25359;SDS011;13311;51.386;0.016;2022-11-15T11:38:42;2.28;;;0.90;;
25359;SDS011;13311;51.386;0.016;2022-11-15T11:49:32;2.83;;;0.80;;
25359;SDS011;13311;51.386;0.016;2022-11-15T11:54:45;3.78;;;0.70;;
25359;SDS011;13311;51.386;0.016;2022-11-15T12:00:24;1.35;;;0.80;;
25359;SDS011;13311;51.386;0.016;2022-11-15T12:05:50;4.90;;;1.27;;
25359;SDS011;13311;51.386;0.016;2022-11-15T12:11:07;2.78;;;1.20;;
25359;SDS011;13311;51.386;0.016;2022-11-15T12:16:30;5.72;;;1.60;;
25359;SDS011;13311;51.386;0.016;2022-11-15T12:27:20;9.45;;;4.13;;
25359;SDS011;13311;51.386;0.016;2022-11-15T12:32:38;13.50;;;4.22;;
25359;SDS011;13311;51.386;0.016;2022-11-15T12:37:50;11.95;;;4.15;;
25359;SDS011;13311;51.386;0.016;2022-11-15T12:53:35;7.28;;;2.35;;
25359;SDS011;13311;51.386;0.016;2022-11-15T12:58:45;10.48;;;2.53;;
25359;SDS011;13311;51.386;0.016;2022-11-15T13:19:39;5.78;;;1.08;;
25359;SDS011;13311;51.386;0.016;2022-11-15T13:24:39;6.63;;;1.63;;
25359;SDS011;13311;51.386;0.016;2022-11-15T13:29:42;5.63;;;1.25;;
25359;SDS011;13311;51.386;0.016;2022-11-15T13:34:44;4.38;;;0.90;;
25359;SDS011;13311;51.386;0.016;2022-11-15T13:39:48;6.35;;;1.50;;
25359;SDS011;13311;51.386;0.016;2022-11-15T13:44:59;5.97;;;1.77;;
25359;SDS011;13311;51.386;0.016;2022-11-15T13:50:03;7.10;;;1.30;;
25359;SDS011;13311;51.386;0.016;2022-11-15T13:55:12;4.63;;;1.23;;
25359;SDS011;13311;51.386;0.016;2022-11-15T14:00:26;11.15;;;1.38;;
25359;SDS011;13311;51.386;0.016;2022-11-15T14:05:43;9.20;;;1.70;;
25359;SDS011;13311;51.386;0.016;2022-11-15T14:11:16;9.00;;;1.73;;
25359;SDS011;13311;51.386;0.016;2022-11-15T14:16:23;5.30;;;1.55;;
25359;SDS011;13311;51.386;0.016;2022-11-15T14:21:37;7.15;;;2.03;;
25359;SDS011;13311;51.386;0.016;2022-11-15T14:27:21;13.45;;;2.38;;
25359;SDS011;13311;51.386;0.016;2022-11-15T14:32:29;9.02;;;1.50;;
25359;SDS011;13311;51.386;0.016;2022-11-15T14:37:44;5.55;;;1.25;;
25359;SDS011;13311;51.386;0.016;2022-11-15T14:42:45;12.70;;;2.08;;
25359;SDS011;13311;51.386;0.016;2022-11-15T14:47:48;13.02;;;2.35;;
25359;SDS011;13311;51.386;0.016;2022-11-15T14:52:49;6.60;;;1.70;;
25359;SDS011;13311;51.386;0.016;2022-11-15T14:57:50;10.43;;;2.35;;
25359;SDS011;13311;51.386;0.016;2022-11-15T15:02:52;8.57;;;2.15;;
25359;SDS011;13311;51.386;0.016;2022-11-15T15:07:54;12.48;;;3.45;;
25359;SDS011;13311;51.386;0.016;2022-11-15T15:12:54;11.00;;;2.70;;
25359;SDS011;13311;51.386;0.016;2022-11-15T15:17:55;9.10;;;1.70;;
25359;SDS011;13311;51.386;0.016;2022-11-15T15:22:56;8.38;;;1.60;;
25359;SDS011;13311;51.386;0.016;2022-11-15T15:27:57;9.60;;;2.13;;
25359;SDS011;13311;51.386;0.016;2022-11-15T15:32:59;12.75;;;2.03;;
25359;SDS011;13311;51.386;0.016;2022-11-15T15:38:00;15.43;;;2.30;;
25359;SDS011;13311;51.386;0.016;2022-11-15T15:43:01;6.85;;;2.13;;
25359;SDS011;13311;51.386;0.016;2022-11-15T15:48:02;12.32;;;2.50;;
25359;SDS011;13311;51.386;0.016;2022-11-15T15:53:03;13.27;;;2.58;;
25359;SDS011;13311;51.386;0.016;2022-11-15T15:58:04;13.63;;;3.05;;
25359;SDS011;13311;51.386;0.016;2022-11-15T16:03:06;12.50;;;2.25;;
25359;SDS011;13311;51.386;0.016;2022-11-15T16:08:16;12.30;;;2.38;;
25359;SDS011;13311;51.386;0.016;2022-11-15T16:13:26;11.57;;;2.20;;
25359;SDS011;13311;51.386;0.016;2022-11-15T16:18:27;10.43;;;2.50;;
25359;SDS011;13311;51.386;0.016;2022-11-15T16:23:27;8.75;;;2.78;;
25359;SDS011;13311;51.386;0.016;2022-11-15T16:28:29;10.02;;;2.55;;
25359;SDS011;13311;51.386;0.016;2022-11-15T16:33:32;14.13;;;2.58;;
25359;SDS011;13311;51.386;0.016;2022-11-15T16:38:33;12.48;;;3.80;;
25359;SDS011;13311;51.386;0.016;2022-11-15T16:43:33;15.20;;;4.13;;
25359;SDS011;13311;51.386;0.016;2022-11-15T16:48:34;14.43;;;3.75;;
25359;SDS011;13311;51.386;0.016;2022-11-15T16:53:35;11.93;;;2.80;;
25359;SDS011;13311;51.386;0.016;2022-11-15T16:58:37;13.35;;;3.72;;
25359;SDS011;13311;51.386;0.016;2022-11-15T17:03:38;16.30;;;4.63;;
25359;SDS011;13311;51.386;0.016;2022-11-15T17:08:38;9.15;;;2.78;;
25359;SDS011;13311;51.386;0.016;2022-11-15T17:13:39;10.18;;;2.25;;
25359;SDS011;13311;51.386;0.016;2022-11-15T17:18:40;15.18;;;3.08;;
25359;SDS011;13311;51.386;0.016;2022-11-15T17:23:44;8.65;;;1.98;;
25359;SDS011;13311;51.386;0.016;2022-11-15T17:28:45;16.50;;;3.03;;
25359;SDS011;13311;51.386;0.016;2022-11-15T17:33:46;13.60;;;3.72;;
25359;SDS011;13311;51.386;0.016;2022-11-15T17:38:46;7.15;;;2.17;;
25359;SDS011;13311;51.386;0.016;2022-11-15T17:43:51;18.40;;;3.45;;
25359;SDS011;13311;51.386;0.016;2022-11-15T17:48:53;17.50;;;3.17;;
25359;SDS011;13311;51.386;0.016;2022-11-15T17:53:55;11.10;;;2.53;;
25359;SDS011;13311;51.386;0.016;2022-11-15T17:58:56;5.05;;;1.52;;
25359;SDS011;13311;51.386;0.016;2022-11-15T18:03:59;10.18;;;3.05;;
25359;SDS011;13311;51.386;0.016;2022-11-15T18:09:03;8.90;;;2.00;;
25359;SDS011;13311;51.386;0.016;2022-11-15T18:14:07;5.60;;;1.95;;
25359;SDS011;13311;51.386;0.016;2022-11-15T18:19:12;6.03;;;1.30;;
25359;SDS011;13311;51.386;0.016;2022-11-15T18:24:14;5.97;;;1.35;;
25359;SDS011;13311;51.386;0.016;2022-11-15T18:29:17;7.68;;;1.92;;
25359;SDS011;13311;51.386;0.016;2022-11-15T18:34:18;5.60;;;1.40;;
25359;SDS011;13311;51.386;0.016;2022-11-15T18:39:23;6.05;;;1.38;;
25359;SDS011;13311;51.386;0.016;2022-11-15T18:44:24;6.18;;;1.77;;
25359;SDS011;13311;51.386;0.016;2022-11-15T18:49:24;6.15;;;1.85;;
25359;SDS011;13311;51.386;0.016;2022-11-15T18:54:28;5.13;;;1.92;;
25359;SDS011;13311;51.386;0.016;2022-11-15T18:59:30;9.40;;;2.25;;
25359;SDS011;13311;51.386;0.016;2022-11-15T19:04:31;8.52;;;2.38;;
25359;SDS011;13311;51.386;0.016;2022-11-15T19:09:32;7.88;;;2.55;;
25359;SDS011;13311;51.386;0.016;2022-11-15T19:14:32;8.70;;;2.38;;
25359;SDS011;13311;51.386;0.016;2022-11-15T19:19:33;8.48;;;3.83;;
25359;SDS011;13311;51.386;0.016;2022-11-15T19:24:34;8.52;;;2.00;;
25359;SDS011;13311;51.386;0.016;2022-11-15T19:29:34;6.35;;;2.53;;
25359;SDS011;13311;51.386;0.016;2022-11-15T19:34:35;15.35;;;3.38;;
25359;SDS011;13311;51.386;0.016;2022-11-15T19:39:36;10.40;;;3.25;;
25359;SDS011;13311;51.386;0.016;2022-11-15T19:44:37;11.85;;;3.38;;
25359;SDS011;13311;51.386;0.016;2022-11-15T19:49:38;14.93;;;3.28;;
25359;SDS011;13311;51.386;0.016;2022-11-15T19:54:38;14.07;;;2.95;;
25359;SDS011;13311;51.386;0.016;2022-11-15T19:59:39;10.98;;;3.28;;
25359;SDS011;13311;51.386;0.016;2022-11-15T20:04:40;21.27;;;4.38;;
25359;SDS011;13311;51.386;0.016;2022-11-15T20:09:40;11.32;;;3.40;;
25359;SDS011;13311;51.386;0.016;2022-11-15T20:14:43;14.32;;;3.40;;
25359;SDS011;13311;51.386;0.016;2022-11-15T20:19:44;9.52;;;2.20;;
25359;SDS011;13311;51.386;0.016;2022-11-15T20:24:46;10.45;;;3.28;;
25359;SDS011;13311;51.386;0.016;2022-11-15T20:29:46;15.15;;;3.28;;
25359;SDS011;13311;51.386;0.016;2022-11-15T20:34:47;16.33;;;3.28;;
25359;SDS011;13311;51.386;0.016;2022-11-15T20:39:48;8.27;;;2.22;;
25359;SDS011;13311;51.386;0.016;2022-11-15T20:44:49;12.20;;;2.53;;
25359;SDS011;13311;51.386;0.016;2022-11-15T20:49:49;11.07;;;2.70;;
25359;SDS011;13311;51.386;0.016;2022-11-15T20:54:50;12.30;;;3.08;;
25359;SDS011;13311;51.386;0.016;2022-11-15T20:59:51;10.52;;;2.83;;
25359;SDS011;13311;51.386;0.016;2022-11-15T21:04:51;12.82;;;4.03;;
25359;SDS011;13311;51.386;0.016;2022-11-15T21:09:52;11.80;;;3.25;;
25359;SDS011;13311;51.386;0.016;2022-11-15T21:15:12;16.80;;;3.38;;
25359;SDS011;13311;51.386;0.016;2022-11-15T21:20:12;10.30;;;2.80;;
25359;SDS011;13311;51.386;0.016;2022-11-15T21:25:18;16.30;;;3.60;;
25359;SDS011;13311;51.386;0.016;2022-11-15T21:30:18;10.85;;;3.83;;
25359;SDS011;13311;51.386;0.016;2022-11-15T21:35:19;19.92;;;3.47;;
25359;SDS011;13311;51.386;0.016;2022-11-15T21:40:20;13.00;;;2.67;;
25359;SDS011;13311;51.386;0.016;2022-11-15T21:45:23;12.77;;;3.28;;
25359;SDS011;13311;51.386;0.016;2022-11-15T21:50:23;11.23;;;3.45;;
25359;SDS011;13311;51.386;0.016;2022-11-15T21:55:24;15.45;;;2.90;;
25359;SDS011;13311;51.386;0.016;2022-11-15T22:00:25;17.40;;;3.47;;
25359;SDS011;13311;51.386;0.016;2022-11-15T22:05:44;14.18;;;2.70;;
25359;SDS011;13311;51.386;0.016;2022-11-15T22:10:45;18.80;;;3.25;;
25359;SDS011;13311;51.386;0.016;2022-11-15T22:15:47;15.05;;;2.75;;
25359;SDS011;13311;51.386;0.016;2022-11-15T22:20:59;11.20;;;2.58;;
25359;SDS011;13311;51.386;0.016;2022-11-15T22:26:06;15.65;;;2.78;;
25359;SDS011;13311;51.386;0.016;2022-11-15T22:31:10;11.98;;;2.40;;
25359;SDS011;13311;51.386;0.016;2022-11-15T22:36:11;13.73;;;3.20;;
25359;SDS011;13311;51.386;0.016;2022-11-15T22:41:12;12.32;;;2.03;;
25359;SDS011;13311;51.386;0.016;2022-11-15T22:46:13;10.52;;;2.72;;
25359;SDS011;13311;51.386;0.016;2022-11-15T22:51:14;21.77;;;3.35;;
25359;SDS011;13311;51.386;0.016;2022-11-15T22:56:15;16.05;;;3.55;;
25359;SDS011;13311;51.386;0.016;2022-11-15T23:01:19;12.73;;;3.35;;
25359;SDS011;13311;51.386;0.016;2022-11-15T23:06:21;9.13;;;3.00;;
25359;SDS011;13311;51.386;0.016;2022-11-15T23:11:21;18.40;;;3.75;;
25359;SDS011;13311;51.386;0.016;2022-11-15T23:16:40;15.68;;;3.50;;
25359;SDS011;13311;51.386;0.016;2022-11-15T23:21:42;12.48;;;2.63;;
25359;SDS011;13311;51.386;0.016;2022-11-15T23:27:04;8.02;;;1.92;;
25359;SDS011;13311;51.386;0.016;2022-11-15T23:32:07;10.75;;;2.03;;
25359;SDS011;13311;51.386;0.016;2022-11-15T23:37:26;10.25;;;1.83;;
25359;SDS011;13311;51.386;0.016;2022-11-15T23:42:28;7.22;;;1.60;;
25359;SDS011;13311;51.386;0.016;2022-11-15T23:47:29;6.68;;;2.10;;
25359;SDS011;13311;51.386;0.016;2022-11-15T23:52:30;5.97;;;1.55;;
25359;SDS011;13311;51.386;0.016;2022-11-15T23:57:31;7.13;;;1.38;;
